sensor_id;sensor_type;location;lat;lon;timestamp;P1;durP1;ratioP1;P2;durP2;ratioP2
65063;SDS011;51654;51.452;6.644;2023-11-21T01:52:36;21.33;;;9.33;;
65063;SDS011;51654;51.452;6.644;2023-11-21T02:44:20;21.20;;;9.67;;
65063;SDS011;51654;51.452;6.644;2023-11-21T02:46:48;21.43;;;8.97;;
65063;SDS011;51654;51.452;6.644;2023-11-21T02:59:06;23.90;;;9.17;;
65063;SDS011;51654;51.452;6.644;2023-11-21T03:06:29;22.10;;;9.50;;
65063;SDS011;51654;51.452;6.644;2023-11-21T03:08:56;22.30;;;9.93;;
65063;SDS011;51654;51.452;6.644;2023-11-21T03:11:24;20.13;;;8.73;;
65063;SDS011;51654;51.452;6.644;2023-11-21T03:13:51;23.50;;;9.50;;
65063;SDS011;51654;51.452;6.644;2023-11-21T03:16:19;19.03;;;9.00;;
65063;SDS011;51654;51.452;6.644;2023-11-21T03:18:47;24.07;;;9.60;;
65063;SDS011;51654;51.452;6.644;2023-11-21T03:21:14;24.80;;;11.13;;
65063;SDS011;51654;51.452;6.644;2023-11-21T03:23:41;29.93;;;10.73;;
65063;SDS011;51654;51.452;6.644;2023-11-21T03:26:11;22.87;;;10.57;;
65063;SDS011;51654;51.452;6.644;2023-11-21T03:28:39;25.20;;;9.30;;
65063;SDS011;51654;51.452;6.644;2023-11-21T03:31:07;38.13;;;9.73;;
65063;SDS011;51654;51.452;6.644;2023-11-21T03:33:35;28.00;;;10.43;;
65063;SDS011;51654;51.452;6.644;2023-11-21T03:36:03;20.33;;;10.87;;
65063;SDS011;51654;51.452;6.644;2023-11-21T03:38:30;21.47;;;9.37;;
65063;SDS011;51654;51.452;6.644;2023-11-21T03:40:57;32.17;;;10.17;;
65063;SDS011;51654;51.452;6.644;2023-11-21T03:43:27;18.63;;;9.13;;
65063;SDS011;51654;51.452;6.644;2023-11-21T03:45:55;24.67;;;8.93;;
65063;SDS011;51654;51.452;6.644;2023-11-21T03:48:22;23.93;;;11.00;;
65063;SDS011;51654;51.452;6.644;2023-11-21T03:50:49;24.23;;;9.83;;
65063;SDS011;51654;51.452;6.644;2023-11-21T03:53:17;25.00;;;10.50;;
65063;SDS011;51654;51.452;6.644;2023-11-21T03:55:44;30.47;;;10.73;;
65063;SDS011;51654;51.452;6.644;2023-11-21T03:58:12;23.97;;;10.10;;
65063;SDS011;51654;51.452;6.644;2023-11-21T04:00:39;25.50;;;10.37;;
65063;SDS011;51654;51.452;6.644;2023-11-21T04:03:07;25.57;;;11.27;;
65063;SDS011;51654;51.452;6.644;2023-11-21T04:05:34;23.73;;;11.00;;
65063;SDS011;51654;51.452;6.644;2023-11-21T04:08:01;33.50;;;10.93;;
65063;SDS011;51654;51.452;6.644;2023-11-21T04:10:29;27.67;;;11.33;;
65063;SDS011;51654;51.452;6.644;2023-11-21T04:12:56;25.13;;;10.83;;
65063;SDS011;51654;51.452;6.644;2023-11-21T04:15:23;22.37;;;10.50;;
65063;SDS011;51654;51.452;6.644;2023-11-21T04:17:51;24.80;;;10.27;;
65063;SDS011;51654;51.452;6.644;2023-11-21T04:20:18;18.93;;;8.37;;
65063;SDS011;51654;51.452;6.644;2023-11-21T04:22:45;22.57;;;10.37;;
65063;SDS011;51654;51.452;6.644;2023-11-21T04:25:14;24.30;;;10.07;;
65063;SDS011;51654;51.452;6.644;2023-11-21T04:27:43;21.00;;;10.90;;
65063;SDS011;51654;51.452;6.644;2023-11-21T04:30:11;28.00;;;10.27;;
65063;SDS011;51654;51.452;6.644;2023-11-21T04:32:38;30.73;;;11.20;;
65063;SDS011;51654;51.452;6.644;2023-11-21T04:35:06;18.83;;;8.83;;
65063;SDS011;51654;51.452;6.644;2023-11-21T04:37:35;29.17;;;10.10;;
65063;SDS011;51654;51.452;6.644;2023-11-21T04:40:03;24.90;;;9.50;;
65063;SDS011;51654;51.452;6.644;2023-11-21T04:42:34;29.63;;;10.50;;
65063;SDS011;51654;51.452;6.644;2023-11-21T04:45:03;25.70;;;10.20;;
65063;SDS011;51654;51.452;6.644;2023-11-21T04:47:35;26.47;;;9.70;;
65063;SDS011;51654;51.452;6.644;2023-11-21T04:50:03;21.70;;;9.80;;
65063;SDS011;51654;51.452;6.644;2023-11-21T04:52:30;30.63;;;13.03;;
65063;SDS011;51654;51.452;6.644;2023-11-21T04:54:59;34.37;;;11.63;;
65063;SDS011;51654;51.452;6.644;2023-11-21T04:57:28;32.33;;;10.37;;
65063;SDS011;51654;51.452;6.644;2023-11-21T04:59:55;18.87;;;9.47;;
65063;SDS011;51654;51.452;6.644;2023-11-21T05:02:23;36.43;;;11.67;;
65063;SDS011;51654;51.452;6.644;2023-11-21T05:05:01;32.23;;;12.57;;
65063;SDS011;51654;51.452;6.644;2023-11-21T05:07:29;27.27;;;11.43;;
65063;SDS011;51654;51.452;6.644;2023-11-21T05:09:58;30.97;;;11.77;;
65063;SDS011;51654;51.452;6.644;2023-11-21T05:12:25;38.67;;;12.77;;
65063;SDS011;51654;51.452;6.644;2023-11-21T05:14:53;41.53;;;12.50;;
65063;SDS011;51654;51.452;6.644;2023-11-21T05:17:20;38.60;;;12.63;;
65063;SDS011;51654;51.452;6.644;2023-11-21T05:19:48;35.53;;;12.47;;
65063;SDS011;51654;51.452;6.644;2023-11-21T05:22:16;22.30;;;11.83;;
65063;SDS011;51654;51.452;6.644;2023-11-21T05:24:43;36.97;;;11.67;;
65063;SDS011;51654;51.452;6.644;2023-11-21T05:27:11;36.57;;;13.27;;
65063;SDS011;51654;51.452;6.644;2023-11-21T05:29:39;36.57;;;13.47;;
65063;SDS011;51654;51.452;6.644;2023-11-21T05:32:06;33.50;;;14.13;;
65063;SDS011;51654;51.452;6.644;2023-11-21T05:34:33;34.60;;;13.57;;
65063;SDS011;51654;51.452;6.644;2023-11-21T05:37:01;34.30;;;12.67;;
65063;SDS011;51654;51.452;6.644;2023-11-21T05:39:28;45.83;;;13.73;;
65063;SDS011;51654;51.452;6.644;2023-11-21T05:41:55;28.80;;;13.73;;
65063;SDS011;51654;51.452;6.644;2023-11-21T05:44:24;29.60;;;14.37;;
65063;SDS011;51654;51.452;6.644;2023-11-21T05:46:51;35.53;;;13.90;;
65063;SDS011;51654;51.452;6.644;2023-11-21T05:49:18;38.27;;;14.27;;
65063;SDS011;51654;51.452;6.644;2023-11-21T05:51:49;38.17;;;14.07;;
65063;SDS011;51654;51.452;6.644;2023-11-21T05:54:16;42.13;;;15.57;;
65063;SDS011;51654;51.452;6.644;2023-11-21T05:56:43;32.43;;;12.33;;
65063;SDS011;51654;51.452;6.644;2023-11-21T05:59:11;44.57;;;15.23;;
65063;SDS011;51654;51.452;6.644;2023-11-21T06:01:38;42.20;;;14.80;;
65063;SDS011;51654;51.452;6.644;2023-11-21T06:04:06;44.27;;;15.93;;
65063;SDS011;51654;51.452;6.644;2023-11-21T06:06:37;41.20;;;16.67;;
65063;SDS011;51654;51.452;6.644;2023-11-21T06:09:05;42.00;;;15.37;;
65063;SDS011;51654;51.452;6.644;2023-11-21T06:11:35;48.70;;;15.63;;
65063;SDS011;51654;51.452;6.644;2023-11-21T06:14:03;52.43;;;16.20;;
65063;SDS011;51654;51.452;6.644;2023-11-21T06:16:30;41.10;;;15.60;;
65063;SDS011;51654;51.452;6.644;2023-11-21T06:18:57;51.50;;;16.40;;
65063;SDS011;51654;51.452;6.644;2023-11-21T06:21:25;54.63;;;17.67;;
65063;SDS011;51654;51.452;6.644;2023-11-21T06:23:53;51.77;;;17.47;;
65063;SDS011;51654;51.452;6.644;2023-11-21T06:26:20;42.13;;;16.13;;
65063;SDS011;51654;51.452;6.644;2023-11-21T06:28:48;48.47;;;17.27;;
65063;SDS011;51654;51.452;6.644;2023-11-21T06:31:17;43.33;;;15.50;;
65063;SDS011;51654;51.452;6.644;2023-11-21T06:33:45;41.90;;;15.80;;
65063;SDS011;51654;51.452;6.644;2023-11-21T06:36:13;50.13;;;15.07;;
65063;SDS011;51654;51.452;6.644;2023-11-21T06:38:40;35.37;;;14.93;;
65063;SDS011;51654;51.452;6.644;2023-11-21T06:41:07;53.70;;;16.20;;
65063;SDS011;51654;51.452;6.644;2023-11-21T06:43:35;39.60;;;16.00;;
65063;SDS011;51654;51.452;6.644;2023-11-21T06:46:02;48.13;;;16.10;;
65063;SDS011;51654;51.452;6.644;2023-11-21T06:48:31;54.70;;;16.63;;
65063;SDS011;51654;51.452;6.644;2023-11-21T06:50:58;49.10;;;16.00;;
65063;SDS011;51654;51.452;6.644;2023-11-21T06:53:25;33.50;;;14.80;;
65063;SDS011;51654;51.452;6.644;2023-11-21T06:55:52;38.37;;;15.90;;
65063;SDS011;51654;51.452;6.644;2023-11-21T06:58:20;41.80;;;15.17;;
65063;SDS011;51654;51.452;6.644;2023-11-21T07:00:47;28.07;;;13.60;;
65063;SDS011;51654;51.452;6.644;2023-11-21T07:03:18;33.80;;;13.83;;
65063;SDS011;51654;51.452;6.644;2023-11-21T07:05:46;32.30;;;12.93;;
65063;SDS011;51654;51.452;6.644;2023-11-21T07:08:13;37.83;;;14.57;;
65063;SDS011;51654;51.452;6.644;2023-11-21T07:10:40;40.50;;;15.77;;
65063;SDS011;51654;51.452;6.644;2023-11-21T07:13:08;34.73;;;14.23;;
65063;SDS011;51654;51.452;6.644;2023-11-21T07:15:38;38.27;;;13.90;;
65063;SDS011;51654;51.452;6.644;2023-11-21T07:18:06;41.37;;;14.27;;
65063;SDS011;51654;51.452;6.644;2023-11-21T07:20:34;26.97;;;12.33;;
65063;SDS011;51654;51.452;6.644;2023-11-21T07:23:01;38.77;;;14.73;;
65063;SDS011;51654;51.452;6.644;2023-11-21T07:25:30;43.07;;;16.07;;
65063;SDS011;51654;51.452;6.644;2023-11-21T07:27:58;36.50;;;14.33;;
65063;SDS011;51654;51.452;6.644;2023-11-21T07:30:25;32.90;;;14.80;;
65063;SDS011;51654;51.452;6.644;2023-11-21T07:32:53;41.97;;;15.97;;
65063;SDS011;51654;51.452;6.644;2023-11-21T07:35:21;43.77;;;16.17;;
65063;SDS011;51654;51.452;6.644;2023-11-21T07:37:48;42.97;;;14.53;;
65063;SDS011;51654;51.452;6.644;2023-11-21T07:40:16;39.13;;;15.20;;
65063;SDS011;51654;51.452;6.644;2023-11-21T07:42:43;32.03;;;13.60;;
65063;SDS011;51654;51.452;6.644;2023-11-21T07:45:10;38.40;;;15.60;;
65063;SDS011;51654;51.452;6.644;2023-11-21T07:47:38;35.40;;;14.77;;
65063;SDS011;51654;51.452;6.644;2023-11-21T07:50:06;32.33;;;13.70;;
65063;SDS011;51654;51.452;6.644;2023-11-21T07:52:34;30.67;;;13.33;;
65063;SDS011;51654;51.452;6.644;2023-11-21T07:55:01;35.77;;;13.87;;
65063;SDS011;51654;51.452;6.644;2023-11-21T07:57:30;33.40;;;14.67;;
65063;SDS011;51654;51.452;6.644;2023-11-21T07:59:57;37.63;;;13.77;;
65063;SDS011;51654;51.452;6.644;2023-11-21T08:02:24;37.50;;;15.27;;
65063;SDS011;51654;51.452;6.644;2023-11-21T08:04:52;33.93;;;14.17;;
65063;SDS011;51654;51.452;6.644;2023-11-21T08:07:20;30.03;;;12.97;;
65063;SDS011;51654;51.452;6.644;2023-11-21T08:09:48;45.40;;;15.23;;
65063;SDS011;51654;51.452;6.644;2023-11-21T08:12:16;38.17;;;13.93;;
65063;SDS011;51654;51.452;6.644;2023-11-21T08:14:44;34.67;;;14.80;;
65063;SDS011;51654;51.452;6.644;2023-11-21T08:36:56;36.27;;;13.90;;
65063;SDS011;51654;51.452;6.644;2023-11-21T08:39:23;39.20;;;12.70;;
65063;SDS011;51654;51.452;6.644;2023-11-21T08:41:51;30.23;;;10.40;;
65063;SDS011;51654;51.452;6.644;2023-11-21T08:44:18;31.90;;;12.23;;
65063;SDS011;51654;51.452;6.644;2023-11-21T08:46:45;32.60;;;13.20;;
65063;SDS011;51654;51.452;6.644;2023-11-21T08:49:13;32.67;;;13.27;;
65063;SDS011;51654;51.452;6.644;2023-11-21T08:51:41;26.47;;;11.40;;
65063;SDS011;51654;51.452;6.644;2023-11-21T08:54:09;25.63;;;12.40;;
65063;SDS011;51654;51.452;6.644;2023-11-21T08:56:38;31.73;;;12.87;;
65063;SDS011;51654;51.452;6.644;2023-11-21T08:59:05;28.47;;;12.00;;
65063;SDS011;51654;51.452;6.644;2023-11-21T09:01:34;38.83;;;12.47;;
65063;SDS011;51654;51.452;6.644;2023-11-21T09:04:01;26.57;;;10.83;;
65063;SDS011;51654;51.452;6.644;2023-11-21T09:06:29;30.30;;;12.67;;
65063;SDS011;51654;51.452;6.644;2023-11-21T09:08:56;37.70;;;12.73;;
65063;SDS011;51654;51.452;6.644;2023-11-21T09:11:24;28.70;;;11.23;;
65063;SDS011;51654;51.452;6.644;2023-11-21T09:13:53;28.00;;;12.53;;
65063;SDS011;51654;51.452;6.644;2023-11-21T09:16:21;27.37;;;11.90;;
65063;SDS011;51654;51.452;6.644;2023-11-21T09:18:48;36.80;;;11.70;;
65063;SDS011;51654;51.452;6.644;2023-11-21T09:21:15;26.90;;;11.70;;
65063;SDS011;51654;51.452;6.644;2023-11-21T09:23:45;31.30;;;11.07;;
65063;SDS011;51654;51.452;6.644;2023-11-21T09:26:13;31.10;;;14.10;;
65063;SDS011;51654;51.452;6.644;2023-11-21T09:28:45;38.77;;;14.00;;
65063;SDS011;51654;51.452;6.644;2023-11-21T09:31:14;38.13;;;13.43;;
65063;SDS011;51654;51.452;6.644;2023-11-21T09:48:29;34.23;;;12.33;;
65063;SDS011;51654;51.452;6.644;2023-11-21T09:50:57;27.30;;;11.90;;
65063;SDS011;51654;51.452;6.644;2023-11-21T09:53:27;31.03;;;12.00;;
65063;SDS011;51654;51.452;6.644;2023-11-21T09:55:56;28.73;;;11.13;;
65063;SDS011;51654;51.452;6.644;2023-11-21T10:00:52;36.20;;;13.90;;
65063;SDS011;51654;51.452;6.644;2023-11-21T10:03:20;33.07;;;12.27;;
65063;SDS011;51654;51.452;6.644;2023-11-21T10:05:48;39.93;;;13.33;;
65063;SDS011;51654;51.452;6.644;2023-11-21T10:13:12;31.67;;;11.30;;
65063;SDS011;51654;51.452;6.644;2023-11-21T10:18:15;35.10;;;14.10;;
65063;SDS011;51654;51.452;6.644;2023-11-21T10:20:42;32.87;;;12.57;;
65063;SDS011;51654;51.452;6.644;2023-11-21T10:23:12;34.97;;;13.60;;
65063;SDS011;51654;51.452;6.644;2023-11-21T16:39:58;9.33;;;6.10;;
65063;SDS011;51654;51.452;6.644;2023-11-21T16:42:26;8.67;;;6.47;;
65063;SDS011;51654;51.452;6.644;2023-11-21T16:44:56;11.70;;;6.63;;
65063;SDS011;51654;51.452;6.644;2023-11-21T16:49:54;10.77;;;7.00;;
65063;SDS011;51654;51.452;6.644;2023-11-21T16:52:23;16.77;;;7.60;;
65063;SDS011;51654;51.452;6.644;2023-11-21T16:54:50;11.47;;;6.60;;
65063;SDS011;51654;51.452;6.644;2023-11-21T16:57:18;9.73;;;6.80;;
65063;SDS011;51654;51.452;6.644;2023-11-21T16:59:45;7.60;;;6.50;;
65063;SDS011;51654;51.452;6.644;2023-11-21T17:04:45;13.00;;;7.17;;
65063;SDS011;51654;51.452;6.644;2023-11-21T17:07:16;10.20;;;6.33;;
65063;SDS011;51654;51.452;6.644;2023-11-21T17:09:47;8.27;;;6.43;;
65063;SDS011;51654;51.452;6.644;2023-11-21T17:12:15;14.27;;;5.63;;
65063;SDS011;51654;51.452;6.644;2023-11-21T17:14:42;13.73;;;6.40;;
65063;SDS011;51654;51.452;6.644;2023-11-21T17:19:40;7.70;;;5.40;;
65063;SDS011;51654;51.452;6.644;2023-11-21T18:01:37;5.93;;;5.40;;
